Latest Weather Observations for Parndana

IDS60801

Issued at 7:05 pm CST Thursday 24 April 2014 (issued every 30 minutes, with the page automatically refreshed every 10 minutes)

About weather observations | Map of weather stations | Latest weather observations for SA | Other Formats
Station Details ID: 022843 Name: PARNDANA CFS AWS Lat: -35.79 Lon: 137.25 Height: 165.0 m
Data from the previous 72 hours. | See also: Recent months at Parndana
Date/Time
CST
Temp
°C
App
Temp
°C
Dew
Point
Rel
Hum
%
Delta-T
°C
Wind Press
QNH
hPa
Press
MSL
hPa
Rain
since 9 am
mm
Dir
 
Spd
km/h
Gust
km/h
Spd
kts
Gust
kts
24/07:00pm 10.2 7.3 6.4 77 1.8 SE 11 13 6 7 - - 0.2
24/06:30pm 10.0 7.3 5.6 74 2.0 ESE 9 11 5 6 - - 0.2
24/06:00pm 11.6 8.6 5.9 68 2.7 E 11 15 6 8 - - 0.2
24/05:30pm 13.4 9.6 6.0 61 3.5 ESE 15 20 8 11 - - 0.2
24/05:00pm 14.5 11.0 5.6 55 4.3 SE 13 19 7 10 - - 0.2
24/04:30pm 15.1 10.9 5.6 53 4.6 SSE 17 22 9 12 - - 0.2
24/04:00pm 15.9 12.2 6.1 52 4.8 SE 15 22 8 12 - - 0.2
24/03:30pm 16.3 11.6 5.9 50 5.1 SE 20 22 11 12 - - 0.2
24/03:00pm 16.5 13.5 4.2 44 5.8 S 9 15 5 8 - - 0.2
24/02:30pm 16.4 12.1 5.1 47 5.4 S 17 24 9 13 - - 0.2
24/02:00pm 16.3 13.1 5.0 47 5.4 S 11 20 6 11 - - 0.2
24/01:30pm 16.8 13.4 5.7 48 5.4 S 13 20 7 11 - - 0.2
24/01:00pm 17.0 14.7 5.6 47 5.6 SSE 7 17 4 9 - - 0.2
24/12:30pm 15.8 11.8 4.8 48 5.2 SSE 15 24 8 13 - - 0.2
24/12:00pm 15.7 12.1 5.0 49 5.1 SSE 13 19 7 10 - - 0.2
24/11:30am 16.3 12.4 7.0 54 4.6 SSE 17 26 9 14 - - 0.2
24/11:00am 15.7 11.5 7.5 58 4.1 S 19 24 10 13 - - 0.2
24/10:30am 15.2 10.4 8.7 65 3.3 SSE 24 33 13 18 - - 0.2
24/10:00am 15.1 10.3 7.4 60 3.8 S 22 30 12 16 - - 0.2
24/09:30am 14.5 9.0 7.5 63 3.5 S 26 33 14 18 - - 0.0
24/09:00am 14.5 10.6 9.5 72 2.6 S 20 28 11 15 - - 1.0
24/08:30am 13.9 10.1 9.7 76 2.2 S 20 28 11 15 - - 1.0
24/08:00am 13.3 11.1 10.8 85 1.3 S 13 15 7 8 - - 1.0
24/07:30am 13.0 11.3 11.1 88 1.0 S 11 15 6 8 - - 1.0
24/07:00am 12.8 10.7 11.2 90 0.8 S 13 19 7 10 - - 1.0
24/06:30am 12.9 10.7 12.0 94 0.5 S 15 22 8 12 - - 1.0
24/06:00am 12.9 10.7 12.1 95 0.4 SSW 15 24 8 13 - - 1.0
24/05:30am 13.4 11.0 12.6 95 0.4 SSW 17 33 9 18 - - 0.8
24/05:00am 13.4 11.7 12.5 94 0.5 SSW 13 19 7 10 - - 0.8
24/04:30am 13.8 11.8 12.7 93 0.6 SW 15 19 8 10 - - 0.8
24/04:00am 13.9 11.5 12.8 93 0.6 WSW 17 24 9 13 - - 0.6
24/03:30am 13.9 11.5 12.6 92 0.7 WSW 17 24 9 13 - - 0.6
24/03:00am 13.2 11.1 12.4 95 0.4 W 15 17 8 9 - - 0.6
24/02:30am 12.9 11.4 12.0 94 0.5 W 11 17 6 9 - - 0.6
24/02:00am 13.4 11.3 12.5 94 0.5 WNW 15 20 8 11 - - 0.6
24/01:30am 12.7 10.4 11.8 94 0.5 WNW 15 17 8 9 - - 0.6
24/01:00am 12.8 10.2 11.9 94 0.5 NW 17 20 9 11 - - 0.6
24/12:30am 12.5 10.1 11.4 93 0.6 WNW 15 19 8 10 - - 0.6
24/12:00am 12.3 10.3 11.4 94 0.5 NW 13 17 7 9 - - 0.6
 
Date/Time
CST
Temp
°C
App
Temp
°C
Dew
Point
Rel
Hum
%
Delta-T
°C
Wind Press
QNH
hPa
Press
MSL
hPa
Rain
since 9 am
mm
Dir
 
Spd
km/h
Gust
km/h
Spd
kts
Gust
kts
23/11:30pm 12.4 10.4 11.6 95 0.4 WNW 13 19 7 10 - - 0.6
23/11:00pm 12.1 10.1 11.5 96 0.3 NW 13 19 7 10 - - 0.6
23/10:30pm 12.4 10.4 11.6 95 0.4 NW 13 17 7 9 - - 0.6
23/10:00pm 12.3 10.7 11.4 94 0.5 NNW 11 13 6 7 - - 0.6
23/09:30pm 13.2 11.8 12.3 94 0.5 NNW 11 13 6 7 - - 0.6
23/09:00pm 13.6 12.8 12.8 95 0.4 NNW 9 11 5 6 - - 0.6
23/08:30pm 13.8 12.2 12.9 94 0.5 NW 13 19 7 10 - - 0.4
23/08:00pm 13.7 12.1 12.8 94 0.5 WNW 13 19 7 10 - - 0.4
23/07:30pm 13.6 11.5 12.3 92 0.7 NW 15 20 8 11 - - 0.4
23/07:00pm 13.4 10.6 12.5 94 0.5 WNW 19 30 10 16 - - 0.4
23/06:30pm 13.6 11.2 12.7 94 0.5 WNW 17 22 9 12 - - 0.2
23/06:12pm 14.2 9.5 11.9 86 1.2 NW 28 43 15 23 - - 0.0
23/06:00pm 15.4 12.4 10.8 74 2.5 NNW 17 20 9 11 - - 0.0
23/05:30pm 15.3 12.3 10.5 73 2.6 NW 17 22 9 12 - - 0.0
23/05:00pm 16.0 12.5 10.1 68 3.1 NW 19 26 10 14 - - 0.0
23/04:30pm 17.1 12.1 9.5 61 4.0 NW 26 35 14 19 - - 0.0
23/04:00pm 17.5 12.8 9.4 59 4.3 NNW 24 33 13 18 - - 0.0
23/03:30pm 17.9 13.6 9.3 57 4.5 NW 22 26 12 14 - - 0.0
23/03:00pm 18.3 13.6 9.1 55 4.8 NW 24 30 13 16 - - 0.0
23/02:30pm 17.4 13.5 9.6 60 4.1 NNW 20 30 11 16 - - 0.0
23/02:00pm 18.4 14.5 9.5 56 4.7 NNW 20 30 11 16 - - 0.0
23/01:30pm 19.3 15.4 9.5 53 5.2 NW 20 32 11 17 - - 0.0
23/01:00pm 18.6 14.2 9.1 54 5.0 NNW 22 33 12 18 - - 0.0
23/12:30pm 18.5 14.5 9.0 54 5.0 NNW 20 32 11 17 - - 0.0
23/12:00pm 18.4 14.5 9.5 56 4.7 NW 20 32 11 17 - - 0.0
23/11:30am 17.4 12.8 9.8 61 4.0 NNW 24 35 13 19 - - 0.0
23/11:00am 16.9 12.9 10.3 65 3.5 NW 22 32 12 17 - - 0.0
23/10:30am 17.0 12.7 10.6 66 3.4 NNW 24 33 13 18 - - 0.0
23/10:00am 15.9 12.5 10.7 71 2.8 NNW 19 24 10 13 - - 0.0
23/09:30am 15.1 13.3 12.1 82 1.6 NNW 13 19 7 10 - - 0.0
23/09:00am 13.9 13.2 11.9 88 1.1 NNW 7 11 4 6 - - 0.2
23/08:30am 11.2 10.1 10.6 96 0.3 NW 7 9 4 5 - - 0.2
23/08:00am 10.1 8.4 10.0 99 0.1 NW 9 11 5 6 - - 0.2
23/07:30am 8.9 6.9 8.6 98 0.1 NW 9 11 5 6 - - 0.2
23/07:00am 7.2 5.1 6.6 96 0.3 NW 7 9 4 5 - - 0.0
23/06:30am 7.7 5.9 7.3 97 0.2 N 6 6 3 3 - - 0.0
23/06:00am 5.6 3.7 4.7 94 0.4 NNW 4 6 2 3 - - 0.0
23/05:30am 6.1 3.7 5.1 93 0.4 NNW 7 7 4 4 - - 0.0
23/05:00am 7.4 5.4 7.0 97 0.2 NNW 7 7 4 4 - - 0.0
23/04:30am 7.8 6.0 7.1 95 0.3 NNW 6 7 3 4 - - 0.0
23/04:00am 7.2 5.1 6.6 96 0.3 NW 7 7 4 4 - - 0.0
23/03:30am 6.4 3.8 6.0 97 0.2 WNW 9 11 5 6 - - 0.0
23/03:00am 6.2 3.9 5.9 98 0.1 WNW 7 7 4 4 - - 0.0
23/02:30am 7.4 5.4 7.3 99 0.0 WNW 7 9 4 5 - - 0.0
23/02:00am 6.6 4.0 6.3 98 0.1 NW 9 11 5 6 - - 0.0
23/01:30am 5.7 3.4 5.0 95 0.3 NNW 6 7 3 4 - - 0.0
23/01:00am 7.1 5.5 6.5 96 0.3 N 4 4 2 2 - - 0.0
23/12:30am 7.7 6.3 7.3 97 0.2 NW 4 4 2 2 - - 0.0
23/12:00am 8.1 6.2 7.7 97 0.2 NNW 7 9 4 5 - - 0.0
 
Date/Time
CST
Temp
°C
App
Temp
°C
Dew
Point
Rel
Hum
%
Delta-T
°C
Wind Press
QNH
hPa
Press
MSL
hPa
Rain
since 9 am
mm
Dir
 
Spd
km/h
Gust
km/h
Spd
kts
Gust
kts
22/11:30pm 7.2 5.1 6.6 96 0.3 NNW 7 9 4 5 - - 0.0
22/11:00pm 7.0 5.0 6.3 95 0.3 NW 6 6 3 3 - - 0.0
22/10:30pm 9.1 7.4 8.3 95 0.4 W 7 9 4 5 - - 0.0
22/10:00pm 8.6 6.7 7.7 94 0.4 W 7 9 4 5 - - 0.0
22/09:30pm 9.0 7.2 8.1 94 0.4 WSW 7 7 4 4 - - 0.0
22/09:00pm 8.3 6.3 7.1 92 0.6 WSW 7 7 4 4 - - 0.0
22/08:30pm 10.0 8.5 8.3 89 0.8 WSW 6 7 3 4 - - 0.0
22/08:00pm 10.4 9.3 8.5 88 0.9 SW 4 6 2 3 - - 0.0
22/07:30pm 9.8 7.8 7.2 84 1.2 SW 7 7 4 4 - - 0.0
22/07:00pm 11.0 9.3 7.5 79 1.7 SSW 6 7 3 4 - - 0.0
22/06:30pm 11.4 9.7 7.5 77 1.9 SSW 6 6 3 3 - - 0.0
22/06:00pm 12.1 10.1 7.2 72 2.4 SSW 7 7 4 4 - - 0.0
22/05:30pm 13.4 11.5 7.6 68 2.9 S 7 11 4 6 - - 0.0
22/05:00pm 14.6 11.9 8.8 68 3.0 S 13 17 7 9 - - 0.0
22/04:30pm 15.0 11.9 8.7 66 3.2 S 15 24 8 13 - - 0.0
22/04:00pm 15.9 11.8 10.0 68 3.1 S 22 28 12 15 - - 0.0
22/03:30pm 16.0 12.3 10.3 69 3.0 S 20 26 11 14 - - 0.0
22/03:00pm 17.0 13.0 8.4 57 4.4 S 19 26 10 14 - - 0.0
22/02:30pm 17.0 13.4 8.4 57 4.4 SSW 17 24 9 13 - - 0.0
22/02:00pm 17.5 13.7 9.2 58 4.4 S 19 26 10 14 - - 0.0
22/01:30pm 17.3 13.7 8.2 55 4.7 SSW 17 24 9 13 - - 0.0
22/01:00pm 17.1 13.1 8.3 56 4.5 SSW 19 26 10 14 - - 0.0
22/12:30pm 17.1 12.1 8.0 55 4.7 SSW 24 33 13 18 - - 0.0
22/12:00pm 17.5 13.4 7.8 53 5.0 S 19 28 10 15 - - 0.0
22/11:30am 17.0 13.1 8.7 58 4.3 S 19 26 10 14 - - 0.0
22/11:00am 16.7 12.2 8.4 58 4.3 SSW 22 30 12 16 - - 0.0
22/10:30am 16.3 11.9 9.0 62 3.8 SSW 22 32 12 17 - - 0.0
22/10:00am 15.7 11.2 8.7 63 3.6 SSW 22 33 12 18 - - 0.0
22/09:30am 15.1 11.2 8.6 65 3.3 SSW 19 26 10 14 - - 0.0
22/09:00am 14.8 11.1 9.4 70 2.8 SSW 19 24 10 13 - - 1.2
22/08:30am 13.9 11.3 9.5 75 2.3 SSW 13 22 7 12 - - 1.2
22/08:00am 12.8 10.7 9.8 82 1.5 SSW 11 15 6 8 - - 1.2
22/07:30am 11.4 8.7 9.0 85 1.2 SW 13 15 7 8 - - 1.2
22/07:00am 10.6 8.2 8.5 87 1.0 SSW 11 13 6 7 - - 1.2
22/06:30am 10.4 7.9 8.2 86 1.1 SSW 11 13 6 7 - - 1.2
22/06:00am 11.5 8.7 8.7 83 1.4 SSW 13 19 7 10 - - 1.2
22/05:30am 11.8 9.3 9.7 87 1.1 SSW 13 19 7 10 - - 1.2
22/05:00am 12.1 8.9 9.8 86 1.2 SW 17 20 9 11 - - 1.2
22/04:30am 12.2 9.8 10.1 87 1.1 SSW 13 20 7 11 - - 1.2
22/04:00am 12.4 10.0 10.1 86 1.2 SSW 13 17 7 9 - - 1.2
22/03:30am 13.0 11.3 11.2 89 1.0 SSW 11 15 6 8 - - 1.2
22/03:00am 13.2 11.7 11.8 91 0.8 SSW 11 15 6 8 - - 1.2
22/02:30am 13.4 11.9 12.0 91 0.8 SSW 11 15 6 8 - - 1.2
22/02:00am 13.2 11.4 12.1 93 0.6 SSW 13 17 7 9 - - 1.2
22/01:30am 13.3 11.9 12.2 93 0.6 SSW 11 15 6 8 - - 1.2
22/01:00am 13.4 11.3 12.3 93 0.6 SSW 15 20 8 11 - - 1.2
22/12:30am 13.9 11.5 12.8 93 0.6 SSW 17 20 9 11 - - 0.8
22/12:00am 14.4 12.2 13.3 93 0.6 SSW 17 26 9 14 - - 0.2
 
Date/Time
CST
Temp
°C
App
Temp
°C
Dew
Point
Rel
Hum
%
Delta-T
°C
Wind Press
QNH
hPa
Press
MSL
hPa
Rain
since 9 am
mm
Dir
 
Spd
km/h
Gust
km/h
Spd
kts
Gust
kts
21/11:30pm 14.9 13.6 13.8 93 0.6 SSW 13 19 7 10 - - 0.2
21/11:00pm 15.4 13.4 13.9 91 0.9 SSW 17 20 9 11 - - 0.0
21/10:30pm 15.8 14.8 14.5 92 0.7 SSW 13 20 7 11 - - 0.0
21/10:00pm 16.1 14.4 14.8 92 0.8 SW 17 24 9 13 - - 0.0
21/09:30pm 16.1 14.9 15.1 94 0.6 S 15 19 8 10 - - 0.0
21/09:00pm 16.2 15.7 14.9 92 0.8 S 11 15 6 8 - - 0.0
21/08:30pm 16.7 13.8 15.2 91 0.9 SW 24 37 13 20 - - 0.0
21/08:05pm 17.1 13.6 15.4 90 1.0 SW 28 41 15 22 - - 0.0
21/08:00pm 16.8 17.2 15.3 91 0.9 NE 7 13 4 7 - - 0.0
21/07:30pm 17.3 18.9 14.9 86 1.4 CALM 0 2 0 1 - - 0.0

Other Formats:

Comma delimited format used in spreadsheet applications
http://www.bom.gov.au/fwo/IDS60801/IDS60801.94807.axf

JavaScript Object Notation format (JSON) in row-major order
http://www.bom.gov.au/fwo/IDS60801/IDS60801.94807.json